• Join FlightAware (Why Join?)
  • Login
  • US Flag 
06:16AM EDT


 

Airport Tracker/Info


-or-


 

Live Flight TrackerFlight Track Log ✈ VH-LHH ✈ 06-May-2013 ✈ YBYU - WPDL / DIL

Flight Track Log - Related Links

Times and Time Zones

All times are in EDT time to prevent confusion due to time zone crossing. See the VH-LHH flight status page for this flight to view local times or setup timezone preferences in your user account.

Time Position Orientation Groundspeed Altitude Reporting Facility
EDT Latitude Longitude Course Direction KTS MPH feet Rate Location/Type
11:05PM -10.9958 126.5826 360° North 4,000  Level Aus ATC (Calculated)
11:06PM -10.9958 126.5826 341° North 4,000  Level Aus ATC (Calculated)
11:08PM -10.9588 126.5693 341° North  Level FlightAware Approximate
11:08PM -10.9262 126.5538 90° East 4,000  Level Aus ATC (Calculated)
11:08PM -10.9262 126.5538 360° North 4,000  Level Aus ATC (Calculated)
11:09PM -10.9262 126.5538 341° North 4,000  Level Aus ATC (Calculated)
11:11PM -10.8892 126.5406 341° North  Level FlightAware Approximate
11:12PM -10.8690 126.5334 341° North  Level FlightAware Approximate
11:13PM -10.8488 126.5262 341° North  Level FlightAware Approximate
11:14PM -10.8287 126.5190 341° North  Level FlightAware Approximate
11:15PM -10.8085 126.5118 341° North  Level FlightAware Approximate
11:16PM -10.7883 126.5046 341° North  Level FlightAware Approximate
11:17PM -10.7681 126.4974 341° North  Level FlightAware Approximate
11:18PM -10.7479 126.4902 341° North  Level FlightAware Approximate
11:18PM -10.5999 126.4190 341° North 4,000  Level Aus ATC (Calculated)
11:19PM -10.5796 126.4121 341° North  Level FlightAware Approximate
11:20PM -10.5593 126.4051 341° North  Level FlightAware Approximate
11:21PM -10.5391 126.3982 341° North  Level FlightAware Approximate
11:22PM -10.5188 126.3913 341° North  Level FlightAware Approximate
11:23PM -10.4985 126.3843 341° North  Level FlightAware Approximate
11:23PM -10.4204 126.3449 112° Southeast 4,000  Level Aus ATC (Calculated)
11:23PM -10.4204 126.3450 342° North 4,000  Level Aus ATC (Calculated)
11:25PM -10.3804 126.3317 342° North  Level FlightAware Approximate
11:26PM -10.3601 126.3250 342° North  Level FlightAware Approximate
11:27PM -10.3397 126.3183 342° North  Level FlightAware Approximate
11:28PM -10.3194 126.3116 342° North  Level FlightAware Approximate
11:29PM -10.2991 126.3048 342° North  Level FlightAware Approximate
11:30PM -10.2787 126.2981 342° North  Level FlightAware Approximate
11:31PM -10.2584 126.2914 342° North  Level FlightAware Approximate
11:32PM -10.2381 126.2847 342° North  Level FlightAware Approximate
11:33PM -10.2177 126.2780 342° North  Level FlightAware Approximate
11:34PM -10.1974 126.2712 342° North  Level FlightAware Approximate
11:35PM -10.1771 126.2645 342° North  Level FlightAware Approximate
11:36PM -10.1568 126.2578 342° North  Level FlightAware Approximate
11:37PM -10.1373 126.2489 346° North  Level Estimated
11:38PM -10.1144 126.2499 343° North  Level FlightAware Approximate
11:38PM -9.8058 126.1038 346° North 4,000  Level Aus ATC (Calculated)
11:40PM -9.7698 126.0945 346° North  Level FlightAware Approximate
11:41PM -9.7491 126.0892 346° North  Level FlightAware Approximate
11:42PM -9.7284 126.0839 346° North  Level FlightAware Approximate
11:43PM -9.7077 126.0786 346° North  Level FlightAware Approximate
11:44PM -9.6883 126.0693 313° West  Level Estimated
11:45PM -9.6690 126.0601 335° Northwest  Level FlightAware Approximate
11:46PM -9.6496 126.0509 335° Northwest  Level FlightAware Approximate
11:47PM -9.6302 126.0417 335° Northwest  Level FlightAware Approximate
11:48PM -9.6109 126.0325 335° Northwest  Level FlightAware Approximate
11:49PM -9.5915 126.0233 335° Northwest  Level FlightAware Approximate
11:50PM -9.5722 126.0141 335° Northwest  Level FlightAware Approximate
11:51PM -9.5528 126.0050 335° Northwest  Level FlightAware Approximate
11:51PM -9.2743 125.9673 174° South 4,000  Level Aus ATC (Calculated)
11:52PM -9.5334 125.9958 335° Northwest  Level FlightAware Approximate
11:53PM -9.2501 125.9527 329° Northwest  Level FlightAware Approximate
11:54PM -9.2317 125.9416 329° Northwest  Level FlightAware Approximate
11:55PM -9.2134 125.9305 329° Northwest  Level FlightAware Approximate
11:56PM -9.1950 125.9195 329° Northwest  Level FlightAware Approximate
11:57PM -9.1766 125.9084 329° Northwest  Level FlightAware Approximate
11:58PM -9.1583 125.8973 329° Northwest  Level FlightAware Approximate
11:59PM -9.1399 125.8862 329° Northwest  Level FlightAware Approximate
12:00AM -9.1215 125.8751 329° Northwest  Level FlightAware Approximate
12:01AM -9.1032 125.8641 329° Northwest  Level FlightAware Approximate
12:02AM -9.0848 125.8530 329° Northwest  Level FlightAware Approximate
12:03AM -9.0664 125.8419 329° Northwest  Level FlightAware Approximate
12:04AM -9.0480 125.8308 329° Northwest  Level FlightAware Approximate
12:05AM -9.0297 125.8197 313° West  Level Estimated
12:06AM -9.0114 125.8085 313° West  Level Estimated
12:07AM -8.9931 125.7973 313° West  Level Estimated
12:08AM -8.9748 125.7861 313° West  Level Estimated
12:09AM -8.9565 125.7749 313° West  Level Estimated
12:10AM -8.9382 125.7637 313° West  Level Estimated
12:11AM -8.9199 125.7525 313° West  Level Estimated
12:12AM -8.9016 125.7414 313° West  Level Estimated
12:13AM -8.8833 125.7302 313° West  Level Estimated
12:14AM -8.8650 125.7190 313° West  Level Estimated
12:15AM -8.8467 125.7078 313° West  Level Estimated
12:16AM -8.8284 125.6966 313° West  Level Estimated
12:17AM -8.8101 125.6855 313° West  Level Estimated
12:18AM -8.7917 125.6743 313° West  Level Estimated
12:19AM -8.7734 125.6631 313° West  Level Estimated
12:20AM -8.7551 125.6519 313° West  Level Estimated
12:21AM -8.7368 125.6408 313° West  Level Estimated
12:22AM -8.7185 125.6296 313° West  Level Estimated
12:23AM -8.7002 125.6184 313° West  Level Estimated
12:24AM -8.6819 125.6072 313° West  Level Estimated
12:25AM -8.6636 125.5961 313° West  Level Estimated
12:26AM -8.6453 125.5849 313° West  Level Estimated
12:27AM -8.6270 125.5737 313° West  Level Estimated
12:28AM -8.6087 125.5626 313° West  Level Estimated
12:29AM -8.5903 125.5514 313° West  Level Estimated
12:30AM -8.5720 125.5403 313° West  Level Estimated
12:31AM -8.5537 125.5291 313° West  Level Estimated